createdAt,value
2023-02-16T00:00:25.914Z,1.90
2023-02-16T00:02:53.439Z,1.88
2023-02-16T00:05:33.868Z,1.94
2023-02-16T00:08:02.101Z,1.92
2023-02-16T00:10:35.803Z,1.97
2023-02-16T00:13:36.786Z,1.84
2023-02-16T00:16:03.708Z,1.75
2023-02-16T00:18:30.481Z,1.73
2023-02-16T00:20:57.210Z,1.78
2023-02-16T00:23:23.969Z,1.81
2023-02-16T00:25:50.926Z,1.80
2023-02-16T00:28:21.037Z,1.83
2023-02-16T00:30:50.200Z,1.85
2023-02-16T00:33:20.741Z,1.89
2023-02-16T00:35:48.324Z,1.87
2023-02-16T00:38:15.329Z,1.72
2023-02-16T00:40:43.855Z,1.67
2023-02-16T00:43:27.538Z,1.64
2023-02-16T00:45:56.346Z,1.65
2023-02-16T00:48:24.862Z,1.74
2023-02-16T00:50:51.662Z,1.72
2023-02-16T00:53:18.472Z,1.65
2023-02-16T00:55:45.452Z,1.71
2023-02-16T00:58:26.564Z,1.66
2023-02-16T01:01:07.922Z,1.50
2023-02-16T01:03:35.018Z,1.57
2023-02-16T01:06:23.637Z,1.54
2023-02-16T01:09:09.500Z,1.55
2023-02-16T01:11:36.320Z,1.62
2023-02-16T01:14:03.209Z,1.69
2023-02-16T01:16:40.911Z,1.71
2023-02-16T01:19:10.569Z,1.72
2023-02-16T01:21:37.314Z,1.67
2023-02-16T01:24:04.181Z,1.69
2023-02-16T01:26:39.031Z,1.63
2023-02-16T01:29:06.240Z,1.71
2023-02-16T01:31:33.282Z,1.78
2023-02-16T01:34:00.195Z,1.80
2023-02-16T01:36:36.418Z,1.72
2023-02-16T01:39:03.785Z,1.66
2023-02-16T01:42:15.134Z,1.60
2023-02-16T01:45:01.689Z,1.62
2023-02-16T01:47:44.488Z,1.59
2023-02-16T01:50:25.456Z,1.52
2023-02-16T01:53:03.311Z,1.36
2023-02-16T01:55:39.101Z,1.25
2023-02-16T01:58:26.492Z,1.28
2023-02-16T02:00:53.248Z,1.35
2023-02-16T02:04:00.179Z,1.39
2023-02-16T02:06:37.407Z,1.43
2023-02-16T02:09:18.220Z,1.48
2023-02-16T02:12:09.215Z,1.52
2023-02-16T02:14:39.905Z,1.51
2023-02-16T02:17:16.019Z,1.44
2023-02-16T02:20:16.551Z,1.41
2023-02-16T02:23:32.648Z,1.38
2023-02-16T02:26:43.384Z,1.36
2023-02-16T02:29:49.108Z,1.51
2023-02-16T02:32:38.464Z,1.66
2023-02-16T02:35:38.477Z,1.67
2023-02-16T02:38:39.442Z,1.62
2023-02-16T02:41:23.805Z,1.61
2023-02-16T02:44:06.200Z,1.46
2023-02-16T02:46:36.450Z,1.53
2023-02-16T02:49:03.788Z,1.56
2023-02-16T02:51:30.863Z,1.55
2023-02-16T02:54:36.064Z,1.49
2023-02-16T02:57:38.136Z,1.48
2023-02-16T03:00:40.616Z,1.33
2023-02-16T03:03:30.134Z,1.20
2023-02-16T03:06:09.692Z,1.29
2023-02-16T03:08:42.512Z,1.26
2023-02-16T03:11:33.449Z,1.25
2023-02-16T03:14:16.873Z,1.15
2023-02-16T03:17:29.548Z,1.15
2023-02-16T03:20:18.472Z,1.24
2023-02-16T03:23:04.675Z,1.16
2023-02-16T03:25:55.087Z,1.13
2023-02-16T03:28:45.827Z,1.09
2023-02-16T03:31:20.539Z,1.03
2023-02-16T03:33:54.454Z,1.07
2023-02-16T03:36:29.434Z,1.12
2023-02-16T03:38:58.330Z,1.09
2023-02-16T03:41:26.866Z,1.02
2023-02-16T03:43:53.666Z,1.02
2023-02-16T03:46:20.446Z,1.02
2023-02-16T03:48:47.292Z,0.93
2023-02-16T03:51:14.515Z,1.00
2023-02-16T03:53:41.269Z,0.99
2023-02-16T03:56:08.249Z,0.99
2023-02-16T03:58:35.134Z,0.94
2023-02-16T04:01:02.338Z,1.00
2023-02-16T04:03:29.568Z,1.02
2023-02-16T04:05:56.444Z,1.12
2023-02-16T04:08:24.109Z,1.14
2023-02-16T04:10:50.974Z,1.13
2023-02-16T04:13:17.796Z,1.08
2023-02-16T04:15:44.645Z,1.08
2023-02-16T04:18:11.451Z,1.08
2023-02-16T04:20:38.212Z,1.12
2023-02-16T04:23:05.441Z,1.23
2023-02-16T04:25:32.331Z,1.21
2023-02-16T04:27:59.964Z,1.10
2023-02-16T04:30:31.150Z,0.98
2023-02-16T04:32:59.232Z,0.94
2023-02-16T04:35:26.398Z,0.86
2023-02-16T04:37:53.234Z,0.83
2023-02-16T04:40:20.168Z,0.81
2023-02-16T04:42:47.122Z,0.84
2023-02-16T04:45:14.743Z,0.85
2023-02-16T04:47:42.196Z,0.91
2023-02-16T04:50:10.412Z,0.89
2023-02-16T04:52:38.116Z,0.90
2023-02-16T04:55:07.326Z,0.86
2023-02-16T04:57:34.249Z,0.78
2023-02-16T05:00:01.048Z,0.72
2023-02-16T05:02:27.911Z,0.74
2023-02-16T05:04:54.746Z,0.86
2023-02-16T05:07:21.513Z,0.89
2023-02-16T05:09:48.326Z,0.81
2023-02-16T05:12:33.503Z,0.76
2023-02-16T05:15:00.557Z,0.81
2023-02-16T05:17:28.392Z,0.83
2023-02-16T05:19:59.810Z,0.75
2023-02-16T05:22:34.251Z,0.72
2023-02-16T05:25:02.053Z,0.69
2023-02-16T05:27:31.124Z,0.72
2023-02-16T05:29:59.056Z,0.78
2023-02-16T05:32:26.022Z,0.79
2023-02-16T05:34:52.914Z,0.80
2023-02-16T05:37:20.055Z,0.88
2023-02-16T05:39:47.043Z,0.98
2023-02-16T05:42:14.088Z,1.00
2023-02-16T05:44:40.873Z,0.99
2023-02-16T05:47:07.717Z,0.90
2023-02-16T05:49:34.591Z,0.78
2023-02-16T05:52:01.396Z,0.81
2023-02-16T05:54:28.501Z,0.79
2023-02-16T05:56:55.773Z,0.81
2023-02-16T05:59:23.056Z,0.91
2023-02-16T06:01:52.136Z,0.91
2023-02-16T06:04:21.181Z,0.85
2023-02-16T06:06:48.520Z,0.87
2023-02-16T06:09:15.756Z,0.79
2023-02-16T06:11:43.481Z,0.78
2023-02-16T06:14:19.605Z,0.84
2023-02-16T06:16:49.962Z,0.71
2023-02-16T06:19:19.597Z,0.73
2023-02-16T06:21:47.134Z,0.80
2023-02-16T06:24:15.036Z,0.77
2023-02-16T06:26:42.375Z,0.78
2023-02-16T06:29:10.505Z,0.85
2023-02-16T06:31:37.505Z,0.84
2023-02-16T06:34:05.330Z,0.78
2023-02-16T06:36:33.106Z,0.78
2023-02-16T06:39:00.165Z,0.73
2023-02-16T06:41:35.519Z,0.77
2023-02-16T06:44:05.982Z,0.78
2023-02-16T06:46:33.457Z,0.84
2023-02-16T06:49:00.937Z,0.91
2023-02-16T06:51:28.333Z,0.91
2023-02-16T06:53:55.444Z,0.99
2023-02-16T06:56:22.386Z,1.00
2023-02-16T06:58:49.866Z,1.00
2023-02-16T07:01:23.211Z,1.05
2023-02-16T07:03:52.105Z,0.96
2023-02-16T07:06:20.270Z,0.92
2023-02-16T07:08:47.350Z,0.94
2023-02-16T07:11:14.611Z,0.98
2023-02-16T07:13:41.570Z,1.03
2023-02-16T07:16:09.254Z,1.08
2023-02-16T07:18:36.460Z,1.07
2023-02-16T07:21:04.140Z,1.12
2023-02-16T07:23:31.218Z,1.21
2023-02-16T07:25:58.151Z,1.21
2023-02-16T07:28:25.589Z,1.20
2023-02-16T07:30:52.511Z,1.22
2023-02-16T07:33:20.419Z,1.24
2023-02-16T07:35:47.224Z,1.23
2023-02-16T07:38:14.367Z,1.20
2023-02-16T07:40:41.918Z,1.22
2023-02-16T07:43:08.722Z,1.28
2023-02-16T07:45:35.949Z,1.35
2023-02-16T07:48:03.028Z,1.42
2023-02-16T07:50:29.869Z,1.48
2023-02-16T07:52:56.724Z,1.52
2023-02-16T07:55:23.606Z,1.55
2023-02-16T07:57:54.604Z,1.57
2023-02-16T08:00:22.354Z,1.63
2023-02-16T08:02:49.862Z,1.66
2023-02-16T08:05:17.511Z,1.74
2023-02-16T08:07:46.597Z,1.77
2023-02-16T08:10:14.835Z,1.79
2023-02-16T08:12:44.609Z,1.86
2023-02-16T08:15:12.263Z,2.04
2023-02-16T08:17:39.316Z,2.33
2023-02-16T08:20:08.525Z,2.62
2023-02-16T08:22:37.082Z,2.87
2023-02-16T08:25:06.943Z,3.05
2023-02-16T08:27:34.696Z,3.18
2023-02-16T08:30:01.737Z,3.35
2023-02-16T08:32:28.646Z,3.51
2023-02-16T08:34:57.407Z,3.62
2023-02-16T08:37:24.951Z,3.78
2023-02-16T08:39:52.056Z,3.89
2023-02-16T08:42:18.857Z,3.95
2023-02-16T08:44:46.279Z,4.02
2023-02-16T08:47:13.536Z,4.30
2023-02-16T08:49:40.466Z,4.54
2023-02-16T08:52:07.326Z,4.62
2023-02-16T08:54:34.571Z,4.71
2023-02-16T08:57:02.996Z,4.88
2023-02-16T08:59:31.057Z,5.06
2023-02-16T09:01:59.131Z,5.30
2023-02-16T09:04:29.203Z,5.33
2023-02-16T09:06:58.271Z,5.58
2023-02-16T09:09:26.687Z,5.79
2023-02-16T09:11:53.636Z,5.85
2023-02-16T09:14:22.902Z,5.88
2023-02-16T09:16:49.992Z,6.05
2023-02-16T09:19:20.558Z,6.19
2023-02-16T09:21:50.736Z,6.26
2023-02-16T09:24:18.225Z,6.35
2023-02-16T09:26:45.094Z,6.47
2023-02-16T09:29:14.001Z,6.61
2023-02-16T09:31:44.176Z,6.82
2023-02-16T09:34:22.637Z,6.97
2023-02-16T09:36:50.672Z,7.14
2023-02-16T09:39:18.506Z,7.24
2023-02-16T09:42:14.890Z,7.38
2023-02-16T09:44:58.514Z,7.57
2023-02-16T09:47:33.640Z,7.81
2023-02-16T09:50:16.263Z,8.01
2023-02-16T09:53:13.831Z,8.03
2023-02-16T09:56:29.551Z,8.09
2023-02-16T09:59:14.692Z,8.26
2023-02-16T10:02:11.382Z,8.51
2023-02-16T10:04:51.591Z,8.69
2023-02-16T10:07:56.250Z,8.94
2023-02-16T10:11:01.813Z,9.15
2023-02-16T10:13:53.353Z,9.29
2023-02-16T10:16:31.801Z,9.40
2023-02-16T10:19:02.782Z,9.50
2023-02-16T10:21:31.600Z,9.59
2023-02-16T10:24:04.962Z,9.72
2023-02-16T10:26:51.765Z,9.93
2023-02-16T10:29:23.944Z,10.14
2023-02-16T10:32:15.329Z,10.32
2023-02-16T10:35:13.241Z,10.48
2023-02-16T10:38:00.359Z,10.65
2023-02-16T10:40:59.044Z,10.76
2023-02-16T10:44:13.162Z,10.92
2023-02-16T10:46:47.820Z,11.12
2023-02-16T10:49:17.037Z,11.23
2023-02-16T10:51:50.106Z,11.31
2023-02-16T10:54:26.097Z,11.45
2023-02-16T10:56:57.298Z,11.60
2023-02-16T10:59:26.328Z,11.82
2023-02-16T11:02:00.116Z,12.03
2023-02-16T11:05:01.931Z,12.19
2023-02-16T11:07:31.382Z,12.32
2023-02-16T11:10:17.961Z,12.58
2023-02-16T11:12:45.010Z,12.89
2023-02-16T11:15:21.172Z,13.15
2023-02-16T11:18:06.320Z,13.40
2023-02-16T11:20:54.811Z,13.74
2023-02-16T11:23:31.738Z,14.12
2023-02-16T11:26:11.685Z,14.62
2023-02-16T11:28:44.294Z,15.00
2023-02-16T11:31:17.596Z,15.41
2023-02-16T11:34:29.173Z,15.82
2023-02-16T11:37:21.339Z,16.22
2023-02-16T11:40:12.861Z,16.28
2023-02-16T11:42:51.109Z,16.43
2023-02-16T11:45:34.562Z,16.62
2023-02-16T11:48:12.522Z,16.14
2023-02-16T11:50:56.105Z,15.92
2023-02-16T11:53:28.358Z,16.20
2023-02-16T11:56:27.714Z,16.51
2023-02-16T11:59:13.782Z,16.56
2023-02-16T12:02:03.251Z,17.27
2023-02-16T12:04:59.072Z,17.83
2023-02-16T12:08:06.573Z,18.07
2023-02-16T12:10:38.970Z,17.80
2023-02-16T12:13:51.460Z,17.10
2023-02-16T12:16:29.466Z,17.42
2023-02-16T12:19:08.781Z,17.10
2023-02-16T12:21:47.254Z,16.92
2023-02-16T12:24:33.371Z,16.78
2023-02-16T12:27:16.757Z,16.58
2023-02-16T12:29:53.655Z,16.74
2023-02-16T12:32:59.186Z,17.52
2023-02-16T12:36:09.565Z,18.28
2023-02-16T12:38:53.826Z,18.64
2023-02-16T12:41:39.859Z,17.96
2023-02-16T12:44:18.977Z,17.22
2023-02-16T12:47:00.678Z,16.89
2023-02-16T12:49:55.175Z,16.28
2023-02-16T12:52:41.852Z,15.84
2023-02-16T12:55:29.475Z,15.59
2023-02-16T12:58:08.063Z,15.41
2023-02-16T13:00:58.501Z,15.26
2023-02-16T13:03:38.168Z,15.13
2023-02-16T13:07:06.793Z,14.72
2023-02-16T13:09:44.091Z,14.54
2023-02-16T13:12:47.494Z,14.39
2023-02-16T13:15:27.395Z,14.33
2023-02-16T13:18:05.269Z,14.41
2023-02-16T13:20:32.889Z,14.81
2023-02-16T13:23:36.367Z,15.54
2023-02-16T13:26:34.198Z,16.28
2023-02-16T13:29:22.949Z,17.30
2023-02-16T13:32:20.167Z,17.78
2023-02-16T13:35:30.040Z,16.93
2023-02-16T13:38:49.069Z,16.09
2023-02-16T13:41:55.563Z,15.67
2023-02-16T13:44:42.373Z,15.73
2023-02-16T13:47:23.279Z,15.96
2023-02-16T13:50:02.899Z,15.91
2023-02-16T13:52:41.102Z,15.68
2023-02-16T13:55:34.454Z,15.40
2023-02-16T13:58:14.605Z,15.20
2023-02-16T14:00:49.980Z,15.15
2023-02-16T14:03:16.755Z,14.91
2023-02-16T14:05:47.842Z,14.76
2023-02-16T14:08:30.511Z,14.63
2023-02-16T14:11:04.228Z,14.51
2023-02-16T14:13:36.841Z,14.41
2023-02-16T14:16:29.791Z,14.27
2023-02-16T14:19:18.818Z,14.17
2023-02-16T14:21:49.812Z,14.17
2023-02-16T14:24:26.012Z,14.11
2023-02-16T14:27:11.715Z,14.00
2023-02-16T14:29:40.723Z,13.85
2023-02-16T14:32:33.845Z,13.83
2023-02-16T14:35:18.963Z,13.71
2023-02-16T14:38:02.417Z,13.59
2023-02-16T14:40:35.322Z,13.49
2023-02-16T14:43:17.583Z,13.40
2023-02-16T14:46:18.203Z,13.35
2023-02-16T14:49:30.038Z,13.33
2023-02-16T14:52:08.751Z,13.30
2023-02-16T14:54:57.506Z,13.29
2023-02-16T14:57:37.108Z,13.26
2023-02-16T15:00:21.217Z,13.24
2023-02-16T15:03:23.609Z,13.19
2023-02-16T15:06:05.938Z,13.23
2023-02-16T15:08:48.582Z,13.24
2023-02-16T15:11:18.878Z,13.24
2023-02-16T15:13:46.404Z,13.19
2023-02-16T15:16:16.541Z,13.13
2023-02-16T15:18:56.108Z,13.10
2023-02-16T15:21:30.795Z,13.02
2023-02-16T15:24:00.893Z,12.99
2023-02-16T15:26:35.447Z,12.92
2023-02-16T15:29:27.301Z,12.80
2023-02-16T15:31:55.922Z,12.69
2023-02-16T15:34:34.790Z,12.64
2023-02-16T15:37:19.691Z,12.62
2023-02-16T15:40:03.017Z,12.60
2023-02-16T15:42:35.796Z,12.57
2023-02-16T15:45:35.209Z,12.51
2023-02-16T15:48:38.390Z,12.48
2023-02-16T15:51:33.210Z,12.45
2023-02-16T15:54:13.402Z,12.41
2023-02-16T15:56:47.215Z,12.33
2023-02-16T15:59:35.893Z,12.30
2023-02-16T16:02:22.236Z,12.25
2023-02-16T16:04:57.558Z,12.10
2023-02-16T16:07:35.666Z,11.94
2023-02-16T16:10:15.427Z,11.82
2023-02-16T16:12:43.302Z,11.70
2023-02-16T16:15:22.893Z,11.55
2023-02-16T16:17:52.374Z,11.44
2023-02-16T16:20:29.041Z,11.39
2023-02-16T16:23:06.970Z,11.31
2023-02-16T16:25:47.590Z,11.33
2023-02-16T16:28:35.761Z,11.37
2023-02-16T16:31:18.092Z,11.37
2023-02-16T16:34:07.160Z,11.36
2023-02-16T16:36:57.000Z,11.35
2023-02-16T16:39:29.715Z,11.32
2023-02-16T16:42:24.581Z,11.26
2023-02-16T16:45:04.025Z,11.18
2023-02-16T16:47:49.812Z,11.13
2023-02-16T16:50:18.200Z,11.00
2023-02-16T16:52:51.384Z,10.85
2023-02-16T16:55:26.739Z,10.70
2023-02-16T16:58:05.190Z,10.64
2023-02-16T17:00:36.773Z,10.55
2023-02-16T17:03:07.541Z,10.56
2023-02-16T17:05:38.207Z,10.57
2023-02-16T17:08:05.367Z,10.52
2023-02-16T17:10:32.422Z,10.50
2023-02-16T17:13:00.804Z,10.54
2023-02-16T17:15:36.263Z,10.51
2023-02-16T17:18:04.771Z,10.42
2023-02-16T17:20:32.621Z,10.36
2023-02-16T17:23:04.447Z,10.34
2023-02-16T17:25:34.519Z,10.27
2023-02-16T17:28:03.622Z,10.13
2023-02-16T17:30:31.513Z,10.10
2023-02-16T17:32:58.819Z,10.17
2023-02-16T17:35:26.037Z,10.23
2023-02-16T17:37:53.031Z,10.28
2023-02-16T17:40:23.524Z,10.28
2023-02-16T17:42:51.551Z,10.27
2023-02-16T17:45:22.176Z,10.23
2023-02-16T17:47:52.531Z,10.26
2023-02-16T17:50:21.065Z,10.27
2023-02-16T17:52:48.233Z,10.24
2023-02-16T17:55:16.029Z,10.21
2023-02-16T17:57:43.111Z,10.23
2023-02-16T18:00:18.008Z,10.24
2023-02-16T18:02:45.188Z,10.21
2023-02-16T18:05:12.330Z,10.18
2023-02-16T18:07:39.318Z,10.16
2023-02-16T18:10:07.298Z,10.09
2023-02-16T18:12:34.200Z,10.06
2023-02-16T18:15:00.998Z,10.04
2023-02-16T18:17:28.312Z,9.95
2023-02-16T18:19:56.480Z,9.97
2023-02-16T18:22:23.533Z,9.95
2023-02-16T18:24:50.952Z,9.95
2023-02-16T18:27:18.058Z,9.95
2023-02-16T18:29:45.101Z,9.93
2023-02-16T18:32:11.890Z,9.89
2023-02-16T18:34:38.639Z,9.88
2023-02-16T18:37:05.404Z,9.87
2023-02-16T18:39:32.325Z,9.85
2023-02-16T18:41:59.140Z,9.82
2023-02-16T18:44:25.997Z,9.82
2023-02-16T18:46:52.856Z,9.80
2023-02-16T18:49:19.696Z,9.75
2023-02-16T18:51:46.700Z,9.71
2023-02-16T18:54:13.511Z,9.67
2023-02-16T18:56:41.187Z,9.64
2023-02-16T18:59:08.168Z,9.63
2023-02-16T19:01:35.241Z,9.62
2023-02-16T19:04:04.351Z,9.58
2023-02-16T19:06:31.802Z,9.56
2023-02-16T19:08:59.898Z,9.57
2023-02-16T19:11:28.752Z,9.55
2023-02-16T19:13:55.565Z,9.54
2023-02-16T19:16:22.791Z,9.54
2023-02-16T19:18:49.658Z,9.56
2023-02-16T19:21:16.651Z,9.46
2023-02-16T19:23:43.735Z,9.48
2023-02-16T19:26:14.853Z,9.40
2023-02-16T19:28:42.734Z,9.41
2023-02-16T19:31:28.917Z,9.43
2023-02-16T19:33:57.755Z,9.43
2023-02-16T19:36:26.762Z,9.46
2023-02-16T19:38:53.732Z,9.44
2023-02-16T19:41:37.569Z,9.42
2023-02-16T19:44:05.586Z,9.41
2023-02-16T19:46:45.083Z,9.41
2023-02-16T19:49:17.473Z,9.41
2023-02-16T19:51:48.002Z,9.35
2023-02-16T19:54:19.913Z,9.22
2023-02-16T19:56:47.600Z,9.19
2023-02-16T19:59:19.438Z,9.22
2023-02-16T20:01:48.890Z,9.20
2023-02-16T20:04:19.772Z,9.16
2023-02-16T20:06:50.065Z,9.06
2023-02-16T20:09:22.030Z,9.05
2023-02-16T20:11:53.955Z,8.99
2023-02-16T20:14:21.139Z,8.93
2023-02-16T20:16:50.277Z,8.92
2023-02-16T20:19:18.519Z,8.87
2023-02-16T20:21:49.317Z,8.82
2023-02-16T20:24:16.403Z,8.82
2023-02-16T20:26:46.212Z,8.83
2023-02-16T20:29:18.054Z,8.87
2023-02-16T20:31:58.667Z,8.92
2023-02-16T20:34:27.798Z,8.92
2023-02-16T20:36:58.605Z,8.93
2023-02-16T20:39:25.635Z,8.92
2023-02-16T20:41:52.655Z,8.90
2023-02-16T20:44:19.962Z,8.91
2023-02-16T20:46:47.145Z,8.97
2023-02-16T20:49:14.418Z,8.98
2023-02-16T20:51:41.381Z,8.97
2023-02-16T20:54:09.152Z,8.86
2023-02-16T20:56:36.285Z,8.77
2023-02-16T20:59:04.677Z,8.70
2023-02-16T21:01:40.548Z,8.62
2023-02-16T21:04:08.455Z,8.57
2023-02-16T21:06:37.006Z,8.54
2023-02-16T21:09:06.165Z,8.47
2023-02-16T21:11:33.301Z,8.41
2023-02-16T21:14:02.123Z,8.34
2023-02-16T21:16:30.061Z,8.30
2023-02-16T21:18:57.499Z,8.31
2023-02-16T21:21:24.685Z,8.29
2023-02-16T21:23:54.192Z,8.28
2023-02-16T21:26:24.628Z,8.27
2023-02-16T21:28:52.168Z,8.28
2023-02-16T21:31:24.274Z,8.28
2023-02-16T21:33:52.123Z,8.28
2023-02-16T21:36:24.527Z,8.21
2023-02-16T21:38:51.824Z,8.22
2023-02-16T21:41:24.354Z,8.19
2023-02-16T21:43:57.055Z,8.13
2023-02-16T21:46:25.509Z,8.03
2023-02-16T21:48:52.465Z,7.95
2023-02-16T21:51:29.682Z,7.93
2023-02-16T21:53:58.099Z,7.88
2023-02-16T21:56:39.078Z,7.85
2023-02-16T21:59:09.625Z,7.86
2023-02-16T22:01:42.519Z,7.79
2023-02-16T22:04:15.219Z,7.79
2023-02-16T22:06:46.128Z,7.72
2023-02-16T22:09:22.773Z,7.69
2023-02-16T22:11:50.883Z,7.67
2023-02-16T22:14:17.992Z,7.67
2023-02-16T22:16:47.543Z,7.66
2023-02-16T22:19:17.663Z,7.66
2023-02-16T22:21:47.681Z,7.73
2023-02-16T22:24:18.175Z,7.72
2023-02-16T22:26:47.817Z,7.84
2023-02-16T22:29:17.222Z,7.93
2023-02-16T22:31:49.858Z,7.98
2023-02-16T22:34:22.004Z,8.04
2023-02-16T22:36:49.525Z,8.07
2023-02-16T22:39:18.654Z,8.07
2023-02-16T22:41:45.799Z,8.10
2023-02-16T22:44:12.925Z,8.05
2023-02-16T22:46:39.854Z,7.99
2023-02-16T22:49:06.636Z,7.88
2023-02-16T22:51:33.507Z,7.87
2023-02-16T22:54:02.261Z,7.87
2023-02-16T22:56:30.707Z,7.82
2023-02-16T22:58:59.481Z,7.75
2023-02-16T23:01:29.642Z,7.71
2023-02-16T23:03:59.448Z,7.69
2023-02-16T23:06:37.189Z,7.70
2023-02-16T23:09:14.055Z,7.69
2023-02-16T23:11:41.291Z,7.61
2023-02-16T23:14:16.404Z,7.60
2023-02-16T23:16:51.969Z,7.53
2023-02-16T23:19:24.061Z,7.58
2023-02-16T23:21:51.701Z,7.63
2023-02-16T23:24:22.992Z,7.59
2023-02-16T23:26:52.956Z,7.55
2023-02-16T23:29:19.888Z,7.50
2023-02-16T23:31:47.809Z,7.51
2023-02-16T23:34:16.674Z,7.51
2023-02-16T23:36:43.984Z,7.55
2023-02-16T23:39:16.145Z,7.52
2023-02-16T23:41:43.119Z,7.58
2023-02-16T23:44:13.207Z,7.55
2023-02-16T23:46:39.997Z,7.52
2023-02-16T23:49:06.848Z,7.53
2023-02-16T23:51:33.856Z,7.49
2023-02-16T23:54:00.602Z,7.50
2023-02-16T23:56:29.006Z,7.43
2023-02-16T23:59:00.589Z,7.40
